sensor_id;sensor_type;location;lat;lon;timestamp;P1;durP1;ratioP1;P2;durP2;ratioP2
5754;SDS011;2902;42.130;24.732;2022-11-20T00:01:05;46.70;;;30.77;;
5754;SDS011;2902;42.130;24.732;2022-11-20T00:03:32;49.03;;;32.33;;
5754;SDS011;2902;42.130;24.732;2022-11-20T00:05:59;44.63;;;31.77;;
5754;SDS011;2902;42.130;24.732;2022-11-20T00:08:26;47.00;;;31.10;;
5754;SDS011;2902;42.130;24.732;2022-11-20T00:10:53;49.07;;;32.07;;
5754;SDS011;2902;42.130;24.732;2022-11-20T00:13:19;49.23;;;31.43;;
5754;SDS011;2902;42.130;24.732;2022-11-20T00:15:46;47.73;;;31.40;;
5754;SDS011;2902;42.130;24.732;2022-11-20T00:18:14;52.07;;;34.67;;
5754;SDS011;2902;42.130;24.732;2022-11-20T00:20:41;50.17;;;32.37;;
5754;SDS011;2902;42.130;24.732;2022-11-20T00:23:07;45.30;;;31.33;;
5754;SDS011;2902;42.130;24.732;2022-11-20T00:25:34;46.23;;;31.53;;
5754;SDS011;2902;42.130;24.732;2022-11-20T00:28:01;45.83;;;32.77;;
5754;SDS011;2902;42.130;24.732;2022-11-20T00:30:27;44.87;;;31.03;;
5754;SDS011;2902;42.130;24.732;2022-11-20T00:32:56;45.63;;;30.03;;
5754;SDS011;2902;42.130;24.732;2022-11-20T00:35:24;52.40;;;31.53;;
5754;SDS011;2902;42.130;24.732;2022-11-20T00:37:51;49.93;;;31.83;;
5754;SDS011;2902;42.130;24.732;2022-11-20T00:40:17;49.33;;;31.47;;
5754;SDS011;2902;42.130;24.732;2022-11-20T00:42:44;50.43;;;31.57;;
5754;SDS011;2902;42.130;24.732;2022-11-20T00:45:11;45.77;;;30.27;;
5754;SDS011;2902;42.130;24.732;2022-11-20T00:47:37;51.77;;;30.83;;
5754;SDS011;2902;42.130;24.732;2022-11-20T00:50:04;46.23;;;30.90;;
5754;SDS011;2902;42.130;24.732;2022-11-20T00:52:33;44.37;;;30.30;;
5754;SDS011;2902;42.130;24.732;2022-11-20T00:54:59;42.73;;;29.03;;
5754;SDS011;2902;42.130;24.732;2022-11-20T00:57:26;45.50;;;30.70;;
5754;SDS011;2902;42.130;24.732;2022-11-20T00:59:53;46.63;;;30.43;;
5754;SDS011;2902;42.130;24.732;2022-11-20T01:02:19;49.53;;;32.17;;
5754;SDS011;2902;42.130;24.732;2022-11-20T01:04:46;44.23;;;29.87;;
5754;SDS011;2902;42.130;24.732;2022-11-20T01:07:13;47.80;;;30.23;;
5754;SDS011;2902;42.130;24.732;2022-11-20T01:09:41;45.83;;;30.30;;
5754;SDS011;2902;42.130;24.732;2022-11-20T01:12:07;58.63;;;38.33;;
5754;SDS011;2902;42.130;24.732;2022-11-20T01:14:34;47.87;;;31.30;;
5754;SDS011;2902;42.130;24.732;2022-11-20T01:17:01;47.50;;;30.80;;
5754;SDS011;2902;42.130;24.732;2022-11-20T01:19:28;43.80;;;29.97;;
5754;SDS011;2902;42.130;24.732;2022-11-20T01:21:55;40.40;;;27.53;;
5754;SDS011;2902;42.130;24.732;2022-11-20T01:24:22;44.30;;;28.67;;
5754;SDS011;2902;42.130;24.732;2022-11-20T01:26:50;46.07;;;30.27;;
5754;SDS011;2902;42.130;24.732;2022-11-20T01:29:18;41.63;;;29.20;;
5754;SDS011;2902;42.130;24.732;2022-11-20T01:31:46;43.93;;;30.70;;
5754;SDS011;2902;42.130;24.732;2022-11-20T01:34:14;44.80;;;29.70;;
5754;SDS011;2902;42.130;24.732;2022-11-20T01:36:42;43.50;;;30.77;;
5754;SDS011;2902;42.130;24.732;2022-11-20T01:39:10;44.80;;;30.27;;
5754;SDS011;2902;42.130;24.732;2022-11-20T01:41:38;46.63;;;29.87;;
5754;SDS011;2902;42.130;24.732;2022-11-20T01:47:14;47.67;;;29.23;;
5754;SDS011;2902;42.130;24.732;2022-11-20T01:49:44;41.87;;;29.40;;
5754;SDS011;2902;42.130;24.732;2022-11-20T01:52:17;41.00;;;29.23;;
5754;SDS011;2902;42.130;24.732;2022-11-20T01:54:48;42.13;;;28.07;;
5754;SDS011;2902;42.130;24.732;2022-11-20T01:57:21;48.23;;;28.00;;
5754;SDS011;2902;42.130;24.732;2022-11-20T01:59:54;37.10;;;27.80;;
5754;SDS011;2902;42.130;24.732;2022-11-20T02:02:25;43.53;;;29.00;;
5754;SDS011;2902;42.130;24.732;2022-11-20T02:04:54;47.30;;;29.47;;
5754;SDS011;2902;42.130;24.732;2022-11-20T02:07:27;45.73;;;29.43;;
5754;SDS011;2902;42.130;24.732;2022-11-20T02:09:54;38.87;;;28.40;;
5754;SDS011;2902;42.130;24.732;2022-11-20T02:12:21;42.87;;;29.33;;
5754;SDS011;2902;42.130;24.732;2022-11-20T02:15:06;43.00;;;28.47;;
5754;SDS011;2902;42.130;24.732;2022-11-20T02:17:33;38.73;;;28.70;;
5754;SDS011;2902;42.130;24.732;2022-11-20T02:19:59;39.80;;;27.30;;
5754;SDS011;2902;42.130;24.732;2022-11-20T02:22:27;37.27;;;27.43;;
5754;SDS011;2902;42.130;24.732;2022-11-20T02:25:01;39.30;;;28.93;;
5754;SDS011;2902;42.130;24.732;2022-11-20T02:27:30;40.73;;;27.50;;
5754;SDS011;2902;42.130;24.732;2022-11-20T02:29:57;34.10;;;24.43;;
5754;SDS011;2902;42.130;24.732;2022-11-20T02:32:27;46.60;;;28.97;;
5754;SDS011;2902;42.130;24.732;2022-11-20T02:34:55;37.83;;;26.90;;
5754;SDS011;2902;42.130;24.732;2022-11-20T02:37:22;39.07;;;27.00;;
5754;SDS011;2902;42.130;24.732;2022-11-20T02:39:53;40.23;;;26.97;;
5754;SDS011;2902;42.130;24.732;2022-11-20T02:42:21;36.00;;;25.83;;
5754;SDS011;2902;42.130;24.732;2022-11-20T02:44:48;31.03;;;25.37;;
5754;SDS011;2902;42.130;24.732;2022-11-20T02:47:15;38.03;;;25.80;;
5754;SDS011;2902;42.130;24.732;2022-11-20T02:49:41;35.47;;;25.53;;
5754;SDS011;2902;42.130;24.732;2022-11-20T02:52:08;34.67;;;26.23;;
5754;SDS011;2902;42.130;24.732;2022-11-20T02:54:34;37.10;;;25.80;;
5754;SDS011;2902;42.130;24.732;2022-11-20T02:57:01;39.27;;;26.60;;
5754;SDS011;2902;42.130;24.732;2022-11-20T02:59:29;38.40;;;27.27;;
5754;SDS011;2902;42.130;24.732;2022-11-20T03:01:56;35.40;;;25.70;;
5754;SDS011;2902;42.130;24.732;2022-11-20T03:04:23;36.17;;;26.60;;
5754;SDS011;2902;42.130;24.732;2022-11-20T03:06:49;39.43;;;26.40;;
5754;SDS011;2902;42.130;24.732;2022-11-20T03:09:16;36.73;;;26.03;;
5754;SDS011;2902;42.130;24.732;2022-11-20T03:11:43;35.70;;;24.13;;
5754;SDS011;2902;42.130;24.732;2022-11-20T03:14:09;38.40;;;24.17;;
5754;SDS011;2902;42.130;24.732;2022-11-20T03:16:37;35.17;;;24.33;;
5754;SDS011;2902;42.130;24.732;2022-11-20T03:19:04;35.43;;;24.97;;
5754;SDS011;2902;42.130;24.732;2022-11-20T03:21:32;36.70;;;24.17;;
5754;SDS011;2902;42.130;24.732;2022-11-20T03:23:59;31.93;;;23.93;;
5754;SDS011;2902;42.130;24.732;2022-11-20T03:26:27;30.97;;;23.07;;
5754;SDS011;2902;42.130;24.732;2022-11-20T03:28:54;34.40;;;23.20;;
5754;SDS011;2902;42.130;24.732;2022-11-20T03:31:23;35.03;;;21.33;;
5754;SDS011;2902;42.130;24.732;2022-11-20T03:33:52;35.67;;;23.03;;
5754;SDS011;2902;42.130;24.732;2022-11-20T03:36:20;31.30;;;22.30;;
5754;SDS011;2902;42.130;24.732;2022-11-20T03:38:47;33.93;;;21.97;;
5754;SDS011;2902;42.130;24.732;2022-11-20T03:41:15;30.47;;;20.23;;
5754;SDS011;2902;42.130;24.732;2022-11-20T03:43:47;34.90;;;20.80;;
5754;SDS011;2902;42.130;24.732;2022-11-20T03:46:14;28.90;;;20.10;;
5754;SDS011;2902;42.130;24.732;2022-11-20T03:48:41;32.90;;;20.40;;
5754;SDS011;2902;42.130;24.732;2022-11-20T03:51:10;26.07;;;17.10;;
5754;SDS011;2902;42.130;24.732;2022-11-20T03:53:38;20.10;;;14.17;;
5754;SDS011;2902;42.130;24.732;2022-11-20T03:56:05;18.83;;;13.43;;
5754;SDS011;2902;42.130;24.732;2022-11-20T03:58:33;19.97;;;13.83;;
5754;SDS011;2902;42.130;24.732;2022-11-20T04:01:04;26.17;;;15.40;;
5754;SDS011;2902;42.130;24.732;2022-11-20T04:03:32;20.67;;;16.03;;
5754;SDS011;2902;42.130;24.732;2022-11-20T04:06:01;21.43;;;14.47;;
5754;SDS011;2902;42.130;24.732;2022-11-20T04:08:30;24.00;;;13.53;;
5754;SDS011;2902;42.130;24.732;2022-11-20T04:10:56;16.87;;;12.80;;
5754;SDS011;2902;42.130;24.732;2022-11-20T04:13:33;19.63;;;13.50;;
5754;SDS011;2902;42.130;24.732;2022-11-20T04:16:00;18.63;;;14.13;;
5754;SDS011;2902;42.130;24.732;2022-11-20T04:18:26;17.93;;;13.77;;
5754;SDS011;2902;42.130;24.732;2022-11-20T04:20:53;18.27;;;12.63;;
5754;SDS011;2902;42.130;24.732;2022-11-20T04:23:20;21.17;;;14.13;;
5754;SDS011;2902;42.130;24.732;2022-11-20T04:25:48;26.57;;;13.83;;
5754;SDS011;2902;42.130;24.732;2022-11-20T04:28:14;25.73;;;13.77;;
5754;SDS011;2902;42.130;24.732;2022-11-20T04:30:41;21.33;;;13.00;;
5754;SDS011;2902;42.130;24.732;2022-11-20T04:33:08;20.13;;;13.70;;
5754;SDS011;2902;42.130;24.732;2022-11-20T04:35:35;20.13;;;13.30;;
5754;SDS011;2902;42.130;24.732;2022-11-20T04:38:03;21.60;;;12.97;;
5754;SDS011;2902;42.130;24.732;2022-11-20T04:40:30;12.63;;;8.03;;
5754;SDS011;2902;42.130;24.732;2022-11-20T04:42:58;21.20;;;10.20;;
5754;SDS011;2902;42.130;24.732;2022-11-20T04:45:25;20.67;;;9.30;;
5754;SDS011;2902;42.130;24.732;2022-11-20T04:47:52;12.57;;;5.70;;
5754;SDS011;2902;42.130;24.732;2022-11-20T04:50:19;8.63;;;5.30;;
5754;SDS011;2902;42.130;24.732;2022-11-20T04:52:45;9.27;;;6.20;;
5754;SDS011;2902;42.130;24.732;2022-11-20T04:55:12;17.63;;;5.30;;
5754;SDS011;2902;42.130;24.732;2022-11-20T04:57:39;10.50;;;6.23;;
5754;SDS011;2902;42.130;24.732;2022-11-20T05:00:07;10.60;;;7.40;;
5754;SDS011;2902;42.130;24.732;2022-11-20T05:02:35;18.40;;;10.10;;
5754;SDS011;2902;42.130;24.732;2022-11-20T05:05:02;16.60;;;8.33;;
5754;SDS011;2902;42.130;24.732;2022-11-20T05:07:29;13.63;;;9.50;;
5754;SDS011;2902;42.130;24.732;2022-11-20T05:09:55;14.20;;;8.23;;
5754;SDS011;2902;42.130;24.732;2022-11-20T05:12:22;12.77;;;7.70;;
5754;SDS011;2902;42.130;24.732;2022-11-20T05:14:48;9.57;;;7.40;;
5754;SDS011;2902;42.130;24.732;2022-11-20T05:17:17;13.33;;;9.53;;
5754;SDS011;2902;42.130;24.732;2022-11-20T05:19:43;13.80;;;10.27;;
5754;SDS011;2902;42.130;24.732;2022-11-20T05:22:10;14.20;;;10.80;;
5754;SDS011;2902;42.130;24.732;2022-11-20T05:24:36;12.77;;;11.27;;
5754;SDS011;2902;42.130;24.732;2022-11-20T05:27:03;19.70;;;11.47;;
5754;SDS011;2902;42.130;24.732;2022-11-20T05:29:30;15.37;;;10.23;;
5754;SDS011;2902;42.130;24.732;2022-11-20T05:31:56;50.63;;;30.80;;
5754;SDS011;2902;42.130;24.732;2022-11-20T05:34:24;32.83;;;19.97;;
5754;SDS011;2902;42.130;24.732;2022-11-20T05:36:51;15.43;;;11.17;;
5754;SDS011;2902;42.130;24.732;2022-11-20T05:39:18;20.93;;;11.47;;
5754;SDS011;2902;42.130;24.732;2022-11-20T05:41:44;16.20;;;11.60;;
5754;SDS011;2902;42.130;24.732;2022-11-20T05:44:14;19.23;;;12.43;;
5754;SDS011;2902;42.130;24.732;2022-11-20T05:46:41;21.93;;;9.50;;
5754;SDS011;2902;42.130;24.732;2022-11-20T05:49:07;16.73;;;10.90;;
5754;SDS011;2902;42.130;24.732;2022-11-20T05:51:36;22.47;;;12.03;;
5754;SDS011;2902;42.130;24.732;2022-11-20T05:54:02;14.77;;;11.90;;
5754;SDS011;2902;42.130;24.732;2022-11-20T05:56:29;22.20;;;16.90;;
5754;SDS011;2902;42.130;24.732;2022-11-20T05:58:56;20.50;;;12.13;;
5754;SDS011;2902;42.130;24.732;2022-11-20T06:01:23;24.33;;;14.03;;
5754;SDS011;2902;42.130;24.732;2022-11-20T06:03:51;18.30;;;11.87;;
5754;SDS011;2902;42.130;24.732;2022-11-20T06:06:19;17.13;;;11.87;;
5754;SDS011;2902;42.130;24.732;2022-11-20T06:08:47;22.77;;;11.63;;
5754;SDS011;2902;42.130;24.732;2022-11-20T06:11:15;24.50;;;11.60;;
5754;SDS011;2902;42.130;24.732;2022-11-20T06:13:43;15.07;;;11.07;;
5754;SDS011;2902;42.130;24.732;2022-11-20T06:16:10;18.57;;;10.97;;
5754;SDS011;2902;42.130;24.732;2022-11-20T06:18:39;20.20;;;16.00;;
5754;SDS011;2902;42.130;24.732;2022-11-20T06:21:06;12.07;;;8.73;;
5754;SDS011;2902;42.130;24.732;2022-11-20T06:23:34;18.50;;;11.10;;
5754;SDS011;2902;42.130;24.732;2022-11-20T06:26:04;14.57;;;9.50;;
5754;SDS011;2902;42.130;24.732;2022-11-20T06:28:32;13.87;;;8.03;;
5754;SDS011;2902;42.130;24.732;2022-11-20T06:30:59;12.23;;;8.70;;
5754;SDS011;2902;42.130;24.732;2022-11-20T06:33:26;12.37;;;7.63;;
5754;SDS011;2902;42.130;24.732;2022-11-20T06:35:55;13.37;;;7.20;;
5754;SDS011;2902;42.130;24.732;2022-11-20T06:38:23;14.57;;;7.90;;
5754;SDS011;2902;42.130;24.732;2022-11-20T06:40:49;11.10;;;7.17;;
5754;SDS011;2902;42.130;24.732;2022-11-20T06:43:18;7.87;;;5.83;;
5754;SDS011;2902;42.130;24.732;2022-11-20T06:45:44;10.97;;;7.50;;
5754;SDS011;2902;42.130;24.732;2022-11-20T06:48:11;7.10;;;6.23;;
5754;SDS011;2902;42.130;24.732;2022-11-20T06:50:38;8.57;;;5.40;;
5754;SDS011;2902;42.130;24.732;2022-11-20T06:53:04;7.47;;;5.60;;
5754;SDS011;2902;42.130;24.732;2022-11-20T06:55:31;12.50;;;5.30;;
5754;SDS011;2902;42.130;24.732;2022-11-20T06:57:58;8.30;;;6.20;;
5754;SDS011;2902;42.130;24.732;2022-11-20T07:00:26;14.63;;;6.00;;
5754;SDS011;2902;42.130;24.732;2022-11-20T07:02:53;18.37;;;6.70;;
5754;SDS011;2902;42.130;24.732;2022-11-20T07:05:20;11.30;;;7.00;;
5754;SDS011;2902;42.130;24.732;2022-11-20T07:07:46;9.30;;;5.03;;
5754;SDS011;2902;42.130;24.732;2022-11-20T07:10:13;7.50;;;4.93;;
5754;SDS011;2902;42.130;24.732;2022-11-20T07:12:40;9.17;;;6.43;;
5754;SDS011;2902;42.130;24.732;2022-11-20T07:15:07;12.57;;;6.80;;
5754;SDS011;2902;42.130;24.732;2022-11-20T07:17:35;9.53;;;6.33;;
5754;SDS011;2902;42.130;24.732;2022-11-20T07:20:02;10.13;;;6.60;;
5754;SDS011;2902;42.130;24.732;2022-11-20T07:22:29;14.87;;;7.33;;
5754;SDS011;2902;42.130;24.732;2022-11-20T07:24:57;10.10;;;6.33;;
5754;SDS011;2902;42.130;24.732;2022-11-20T07:27:24;14.77;;;8.57;;
5754;SDS011;2902;42.130;24.732;2022-11-20T07:29:50;16.53;;;7.20;;
5754;SDS011;2902;42.130;24.732;2022-11-20T07:32:17;11.70;;;7.70;;
5754;SDS011;2902;42.130;24.732;2022-11-20T07:34:45;13.70;;;8.17;;
5754;SDS011;2902;42.130;24.732;2022-11-20T07:37:12;14.57;;;8.13;;
5754;SDS011;2902;42.130;24.732;2022-11-20T07:39:38;10.77;;;7.67;;
5754;SDS011;2902;42.130;24.732;2022-11-20T07:42:05;15.27;;;8.23;;
5754;SDS011;2902;42.130;24.732;2022-11-20T07:44:33;10.30;;;8.10;;
5754;SDS011;2902;42.130;24.732;2022-11-20T07:46:59;16.70;;;9.37;;
5754;SDS011;2902;42.130;24.732;2022-11-20T07:49:26;21.80;;;14.07;;
5754;SDS011;2902;42.130;24.732;2022-11-20T07:51:55;16.70;;;10.50;;
5754;SDS011;2902;42.130;24.732;2022-11-20T07:54:21;12.10;;;9.27;;
5754;SDS011;2902;42.130;24.732;2022-11-20T07:56:49;19.77;;;11.53;;
5754;SDS011;2902;42.130;24.732;2022-11-20T07:59:15;19.57;;;9.73;;
5754;SDS011;2902;42.130;24.732;2022-11-20T08:01:42;11.03;;;9.23;;
5754;SDS011;2902;42.130;24.732;2022-11-20T08:04:09;17.87;;;9.70;;
5754;SDS011;2902;42.130;24.732;2022-11-20T08:06:36;13.60;;;9.33;;
5754;SDS011;2902;42.130;24.732;2022-11-20T08:09:04;15.73;;;9.40;;
5754;SDS011;2902;42.130;24.732;2022-11-20T08:11:31;10.10;;;9.10;;
5754;SDS011;2902;42.130;24.732;2022-11-20T08:14:15;13.00;;;9.77;;
5754;SDS011;2902;42.130;24.732;2022-11-20T08:16:43;12.43;;;7.53;;
5754;SDS011;2902;42.130;24.732;2022-11-20T08:19:11;13.67;;;9.67;;
5754;SDS011;2902;42.130;24.732;2022-11-20T08:21:38;28.30;;;12.90;;
5754;SDS011;2902;42.130;24.732;2022-11-20T08:24:07;24.03;;;12.70;;
5754;SDS011;2902;42.130;24.732;2022-11-20T08:26:34;16.07;;;9.43;;
5754;SDS011;2902;42.130;24.732;2022-11-20T08:29:02;16.53;;;8.60;;
5754;SDS011;2902;42.130;24.732;2022-11-20T08:31:29;11.83;;;9.27;;
5754;SDS011;2902;42.130;24.732;2022-11-20T08:33:57;19.70;;;9.67;;
5754;SDS011;2902;42.130;24.732;2022-11-20T08:36:23;16.30;;;8.53;;
5754;SDS011;2902;42.130;24.732;2022-11-20T08:38:51;14.57;;;8.97;;
5754;SDS011;2902;42.130;24.732;2022-11-20T08:41:20;9.23;;;8.33;;
5754;SDS011;2902;42.130;24.732;2022-11-20T08:43:52;16.00;;;7.90;;
5754;SDS011;2902;42.130;24.732;2022-11-20T08:46:20;16.03;;;8.10;;
5754;SDS011;2902;42.130;24.732;2022-11-20T08:48:48;11.60;;;7.23;;
5754;SDS011;2902;42.130;24.732;2022-11-20T08:51:14;12.03;;;8.37;;
5754;SDS011;2902;42.130;24.732;2022-11-20T08:53:42;9.87;;;7.87;;
5754;SDS011;2902;42.130;24.732;2022-11-20T08:56:09;19.10;;;6.97;;
5754;SDS011;2902;42.130;24.732;2022-11-20T08:58:37;15.67;;;7.20;;
5754;SDS011;2902;42.130;24.732;2022-11-20T09:01:04;9.30;;;7.20;;
5754;SDS011;2902;42.130;24.732;2022-11-20T09:03:31;14.23;;;7.23;;
5754;SDS011;2902;42.130;24.732;2022-11-20T09:05:58;9.00;;;7.17;;
5754;SDS011;2902;42.130;24.732;2022-11-20T09:08:26;10.50;;;6.67;;
5754;SDS011;2902;42.130;24.732;2022-11-20T09:10:53;13.17;;;6.53;;
5754;SDS011;2902;42.130;24.732;2022-11-20T09:13:21;15.90;;;7.40;;
5754;SDS011;2902;42.130;24.732;2022-11-20T09:15:53;14.30;;;6.73;;
5754;SDS011;2902;42.130;24.732;2022-11-20T09:18:21;12.43;;;7.13;;
5754;SDS011;2902;42.130;24.732;2022-11-20T09:20:48;12.67;;;7.30;;
5754;SDS011;2902;42.130;24.732;2022-11-20T09:23:15;13.83;;;8.40;;
5754;SDS011;2902;42.130;24.732;2022-11-20T09:25:42;15.00;;;10.77;;
5754;SDS011;2902;42.130;24.732;2022-11-20T09:28:09;12.43;;;9.53;;
5754;SDS011;2902;42.130;24.732;2022-11-20T09:30:35;15.43;;;8.53;;
5754;SDS011;2902;42.130;24.732;2022-11-20T09:33:05;11.00;;;7.60;;
5754;SDS011;2902;42.130;24.732;2022-11-20T09:35:32;7.97;;;5.77;;
5754;SDS011;2902;42.130;24.732;2022-11-20T09:38:03;8.63;;;6.43;;
5754;SDS011;2902;42.130;24.732;2022-11-20T09:40:31;9.13;;;5.57;;
5754;SDS011;2902;42.130;24.732;2022-11-20T09:42:58;8.03;;;5.70;;
5754;SDS011;2902;42.130;24.732;2022-11-20T09:48:31;5.73;;;5.20;;
5754;SDS011;2902;42.130;24.732;2022-11-20T09:51:11;8.17;;;4.67;;
5754;SDS011;2902;42.130;24.732;2022-11-20T09:53:52;8.10;;;5.10;;
5754;SDS011;2902;42.130;24.732;2022-11-20T09:56:29;12.37;;;5.10;;
5754;SDS011;2902;42.130;24.732;2022-11-20T09:58:57;6.40;;;5.80;;
5754;SDS011;2902;42.130;24.732;2022-11-20T10:01:30;11.83;;;6.37;;
5754;SDS011;2902;42.130;24.732;2022-11-20T10:04:02;15.63;;;6.57;;
5754;SDS011;2902;42.130;24.732;2022-11-20T10:06:31;14.27;;;6.23;;
5754;SDS011;2902;42.130;24.732;2022-11-20T10:09:03;14.07;;;6.57;;
5754;SDS011;2902;42.130;24.732;2022-11-20T10:11:43;11.03;;;5.33;;
5754;SDS011;2902;42.130;24.732;2022-11-20T10:14:20;9.77;;;5.40;;
5754;SDS011;2902;42.130;24.732;2022-11-20T10:16:57;11.43;;;4.83;;
5754;SDS011;2902;42.130;24.732;2022-11-20T10:19:35;8.60;;;4.43;;
5754;SDS011;2902;42.130;24.732;2022-11-20T10:22:13;11.83;;;4.60;;
5754;SDS011;2902;42.130;24.732;2022-11-20T10:24:52;5.07;;;4.57;;
5754;SDS011;2902;42.130;24.732;2022-11-20T10:30:29;8.80;;;4.70;;
5754;SDS011;2902;42.130;24.732;2022-11-20T10:33:01;7.40;;;4.27;;
5754;SDS011;2902;42.130;24.732;2022-11-20T10:35:34;9.77;;;4.37;;
5754;SDS011;2902;42.130;24.732;2022-11-20T10:38:05;13.17;;;5.03;;
5754;SDS011;2902;42.130;24.732;2022-11-20T10:40:37;9.77;;;4.17;;
5754;SDS011;2902;42.130;24.732;2022-11-20T10:43:08;5.97;;;4.63;;
5754;SDS011;2902;42.130;24.732;2022-11-20T10:45:43;7.87;;;4.63;;
5754;SDS011;2902;42.130;24.732;2022-11-20T10:48:16;11.33;;;4.73;;
5754;SDS011;2902;42.130;24.732;2022-11-20T10:50:55;7.83;;;4.33;;
5754;SDS011;2902;42.130;24.732;2022-11-20T10:53:40;11.93;;;5.77;;
5754;SDS011;2902;42.130;24.732;2022-11-20T10:56:16;14.40;;;5.67;;
5754;SDS011;2902;42.130;24.732;2022-11-20T10:58:48;13.90;;;5.77;;
5754;SDS011;2902;42.130;24.732;2022-11-20T11:01:26;18.50;;;7.63;;
5754;SDS011;2902;42.130;24.732;2022-11-20T11:03:53;25.13;;;7.87;;
5754;SDS011;2902;42.130;24.732;2022-11-20T11:06:24;12.80;;;5.37;;
5754;SDS011;2902;42.130;24.732;2022-11-20T11:08:58;13.93;;;6.50;;
5754;SDS011;2902;42.130;24.732;2022-11-20T11:11:30;16.23;;;6.80;;
5754;SDS011;2902;42.130;24.732;2022-11-20T11:14:04;16.97;;;7.17;;
5754;SDS011;2902;42.130;24.732;2022-11-20T11:16:31;16.07;;;6.53;;
5754;SDS011;2902;42.130;24.732;2022-11-20T11:19:03;17.93;;;8.30;;
5754;SDS011;2902;42.130;24.732;2022-11-20T11:21:32;24.70;;;7.57;;
5754;SDS011;2902;42.130;24.732;2022-11-20T11:23:59;15.10;;;6.53;;
5754;SDS011;2902;42.130;24.732;2022-11-20T11:26:27;16.30;;;5.70;;
5754;SDS011;2902;42.130;24.732;2022-11-20T11:28:55;31.37;;;8.57;;
5754;SDS011;2902;42.130;24.732;2022-11-20T11:31:23;19.23;;;7.57;;
5754;SDS011;2902;42.130;24.732;2022-11-20T11:33:50;13.30;;;6.63;;
5754;SDS011;2902;42.130;24.732;2022-11-20T11:36:18;21.67;;;6.20;;
5754;SDS011;2902;42.130;24.732;2022-11-20T11:38:50;22.77;;;6.97;;
5754;SDS011;2902;42.130;24.732;2022-11-20T11:41:19;32.90;;;8.13;;
5754;SDS011;2902;42.130;24.732;2022-11-20T11:43:51;29.07;;;8.50;;
5754;SDS011;2902;42.130;24.732;2022-11-20T11:46:36;18.10;;;7.60;;
5754;SDS011;2902;42.130;24.732;2022-11-20T11:49:15;18.97;;;8.10;;
5754;SDS011;2902;42.130;24.732;2022-11-20T11:51:46;12.33;;;6.40;;
5754;SDS011;2902;42.130;24.732;2022-11-20T11:54:25;15.80;;;7.33;;
5754;SDS011;2902;42.130;24.732;2022-11-20T11:56:58;18.90;;;5.97;;
5754;SDS011;2902;42.130;24.732;2022-11-20T11:59:30;18.07;;;6.50;;
5754;SDS011;2902;42.130;24.732;2022-11-20T12:02:14;17.80;;;6.23;;
5754;SDS011;2902;42.130;24.732;2022-11-20T12:04:52;23.47;;;6.77;;
5754;SDS011;2902;42.130;24.732;2022-11-20T12:07:27;12.40;;;5.83;;
5754;SDS011;2902;42.130;24.732;2022-11-20T12:10:07;11.97;;;5.43;;
5754;SDS011;2902;42.130;24.732;2022-11-20T12:12:44;18.70;;;9.13;;
5754;SDS011;2902;42.130;24.732;2022-11-20T12:15:16;13.73;;;7.70;;
5754;SDS011;2902;42.130;24.732;2022-11-20T12:17:51;7.90;;;5.03;;
5754;SDS011;2902;42.130;24.732;2022-11-20T12:20:18;7.10;;;5.67;;
5754;SDS011;2902;42.130;24.732;2022-11-20T12:22:49;9.53;;;5.23;;
5754;SDS011;2902;42.130;24.732;2022-11-20T12:25:24;16.97;;;5.70;;
5754;SDS011;2902;42.130;24.732;2022-11-20T12:28:00;8.97;;;4.47;;
5754;SDS011;2902;42.130;24.732;2022-11-20T12:30:41;14.67;;;5.57;;
5754;SDS011;2902;42.130;24.732;2022-11-20T12:33:39;16.43;;;6.90;;
5754;SDS011;2902;42.130;24.732;2022-11-20T12:36:18;16.13;;;5.27;;
5754;SDS011;2902;42.130;24.732;2022-11-20T12:39:02;14.00;;;4.40;;
5754;SDS011;2902;42.130;24.732;2022-11-20T12:44:58;20.87;;;8.17;;
5754;SDS011;2902;42.130;24.732;2022-11-20T12:47:50;14.17;;;4.20;;
5754;SDS011;2902;42.130;24.732;2022-11-20T12:50:28;20.97;;;5.97;;
5754;SDS011;2902;42.130;24.732;2022-11-20T12:53:02;13.60;;;5.03;;
5754;SDS011;2902;42.130;24.732;2022-11-20T12:55:42;17.57;;;6.87;;
5754;SDS011;2902;42.130;24.732;2022-11-20T12:58:20;20.63;;;6.73;;
5754;SDS011;2902;42.130;24.732;2022-11-20T13:00:58;26.67;;;6.80;;
5754;SDS011;2902;42.130;24.732;2022-11-20T13:03:54;12.70;;;5.37;;
5754;SDS011;2902;42.130;24.732;2022-11-20T13:06:33;21.93;;;6.40;;
5754;SDS011;2902;42.130;24.732;2022-11-20T13:09:00;16.90;;;6.23;;
5754;SDS011;2902;42.130;24.732;2022-11-20T13:11:31;21.07;;;7.20;;
5754;SDS011;2902;42.130;24.732;2022-11-20T13:14:07;20.30;;;7.37;;
5754;SDS011;2902;42.130;24.732;2022-11-20T13:16:41;17.83;;;7.30;;
5754;SDS011;2902;42.130;24.732;2022-11-20T13:19:15;20.77;;;8.20;;
5754;SDS011;2902;42.130;24.732;2022-11-20T13:21:43;32.77;;;7.60;;
5754;SDS011;2902;42.130;24.732;2022-11-20T13:24:21;24.20;;;7.43;;
5754;SDS011;2902;42.130;24.732;2022-11-20T13:27:01;19.57;;;6.07;;
5754;SDS011;2902;42.130;24.732;2022-11-20T13:29:45;19.93;;;5.47;;
5754;SDS011;2902;42.130;24.732;2022-11-20T13:32:13;21.97;;;6.90;;
5754;SDS011;2902;42.130;24.732;2022-11-20T13:34:51;27.83;;;9.37;;
5754;SDS011;2902;42.130;24.732;2022-11-20T13:37:27;41.93;;;13.27;;
5754;SDS011;2902;42.130;24.732;2022-11-20T13:40:05;34.00;;;14.63;;
5754;SDS011;2902;42.130;24.732;2022-11-20T13:42:54;14.50;;;6.07;;
5754;SDS011;2902;42.130;24.732;2022-11-20T13:45:25;9.30;;;4.23;;
5754;SDS011;2902;42.130;24.732;2022-11-20T13:47:54;15.87;;;4.30;;
5754;SDS011;2902;42.130;24.732;2022-11-20T13:50:24;21.67;;;3.67;;
5754;SDS011;2902;42.130;24.732;2022-11-20T13:53:07;16.33;;;3.40;;
5754;SDS011;2902;42.130;24.732;2022-11-20T13:55:47;22.20;;;3.33;;
5754;SDS011;2902;42.130;24.732;2022-11-20T13:58:24;13.87;;;3.47;;
5754;SDS011;2902;42.130;24.732;2022-11-20T14:01:07;21.73;;;3.07;;
5754;SDS011;2902;42.130;24.732;2022-11-20T14:03:35;11.63;;;2.27;;
5754;SDS011;2902;42.130;24.732;2022-11-20T14:06:05;10.23;;;1.97;;
5754;SDS011;2902;42.130;24.732;2022-11-20T14:08:39;3.83;;;1.67;;
5754;SDS011;2902;42.130;24.732;2022-11-20T14:11:12;3.93;;;1.40;;
5754;SDS011;2902;42.130;24.732;2022-11-20T14:13:50;2.53;;;1.40;;
5754;SDS011;2902;42.130;24.732;2022-11-20T14:16:24;2.03;;;1.30;;
5754;SDS011;2902;42.130;24.732;2022-11-20T14:18:52;1.40;;;1.30;;
5754;SDS011;2902;42.130;24.732;2022-11-20T14:21:24;3.27;;;1.10;;
5754;SDS011;2902;42.130;24.732;2022-11-20T14:23:52;3.80;;;1.53;;
5754;SDS011;2902;42.130;24.732;2022-11-20T14:26:20;2.57;;;1.40;;
5754;SDS011;2902;42.130;24.732;2022-11-20T14:28:47;2.03;;;1.17;;
5754;SDS011;2902;42.130;24.732;2022-11-20T14:31:18;2.60;;;1.43;;
5754;SDS011;2902;42.130;24.732;2022-11-20T14:33:50;1.30;;;1.20;;
5754;SDS011;2902;42.130;24.732;2022-11-20T14:36:18;4.17;;;1.90;;
5754;SDS011;2902;42.130;24.732;2022-11-20T14:38:47;2.97;;;1.80;;
5754;SDS011;2902;42.130;24.732;2022-11-20T14:41:18;5.97;;;1.60;;
5754;SDS011;2902;42.130;24.732;2022-11-20T14:43:46;1.73;;;1.57;;
5754;SDS011;2902;42.130;24.732;2022-11-20T14:46:16;3.67;;;1.30;;
5754;SDS011;2902;42.130;24.732;2022-11-20T14:48:44;3.37;;;1.40;;
5754;SDS011;2902;42.130;24.732;2022-11-20T14:51:24;1.73;;;1.60;;
5754;SDS011;2902;42.130;24.732;2022-11-20T14:53:54;3.77;;;1.30;;
5754;SDS011;2902;42.130;24.732;2022-11-20T14:56:21;1.60;;;1.50;;
5754;SDS011;2902;42.130;24.732;2022-11-20T14:58:55;3.30;;;2.10;;
5754;SDS011;2902;42.130;24.732;2022-11-20T15:01:25;4.43;;;1.90;;
5754;SDS011;2902;42.130;24.732;2022-11-20T15:03:59;7.77;;;2.53;;
5754;SDS011;2902;42.130;24.732;2022-11-20T15:06:28;2.20;;;2.00;;
5754;SDS011;2902;42.130;24.732;2022-11-20T15:08:56;6.27;;;3.50;;
5754;SDS011;2902;42.130;24.732;2022-11-20T15:11:25;13.20;;;4.03;;
5754;SDS011;2902;42.130;24.732;2022-11-20T15:13:56;8.07;;;4.07;;